Time;durP1;ratioP1;P1;durP2;ratioP2;P2;SDS_P1;SDS_P2;PMS_P1;PMS_P2;Temp;Humidity;BMP_temperature;BMP_pressure;BME280_temperature;BME280_humidity;BME280_pressure;Samples;Min_cycle;Max_cycle;Signal;HPM_P1;HPM_P2
2022/11/15 00:01:16;;;;;;;114.10;21.70;;;6.30;99.90;;;;;;5194257;28;20037;-76
2022/11/15 00:04:10;;;;;;;120.18;20.73;;;6.40;99.90;;;;;;5176279;28;20037;-75
2022/11/15 00:07:02;;;;;;;92.00;22.30;;;6.40;99.90;;;;;;5150333;28;20057;-76
2022/11/15 00:09:55;;;;;;;84.80;20.20;;;6.40;99.90;;;;;;5174303;28;20231;-76
2022/11/15 00:12:50;;;;;;;110.00;23.42;;;6.40;99.90;;;;;;5187956;28;20448;-75
2022/11/15 00:15:41;;;;;;;73.63;21.50;;;6.50;99.90;;;;;;5187164;28;20227;-75
2022/11/15 00:18:38;;;;;;;70.93;21.33;;;6.40;99.90;;;;;;5170084;28;20037;-76
2022/11/15 00:21:29;;;;;;;58.03;19.90;;;6.40;99.90;;;;;;5188709;28;20043;-76
2022/11/15 00:24:23;;;;;;;63.22;19.98;;;6.30;99.90;;;;;;5172634;28;20029;-76
2022/11/15 00:27:14;;;;;;;64.32;21.30;;;6.40;99.90;;;;;;5173496;28;20036;-76
2022/11/15 00:30:07;;;;;;;69.15;21.27;;;6.40;99.90;;;;;;5186666;28;20039;-76
2022/11/15 00:33:05;;;;;;;68.22;21.27;;;6.50;99.90;;;;;;5189258;28;20036;-76
2022/11/15 00:36:06;;;;;;;88.57;22.30;;;6.40;99.90;;;;;;5188036;28;20102;-76
2022/11/15 00:39:01;;;;;;;92.97;21.27;;;6.40;99.90;;;;;;5190463;28;20025;-76
2022/11/15 00:41:52;;;;;;;70.53;21.30;;;6.40;99.90;;;;;;5187964;28;20026;-75
2022/11/15 00:44:43;;;;;;;101.30;20.88;;;6.40;99.90;;;;;;5179254;28;20038;-75
2022/11/15 00:47:35;;;;;;;63.42;21.45;;;6.40;99.90;;;;;;5187843;28;20025;-75
2022/11/15 00:50:29;;;;;;;60.92;21.55;;;6.50;99.90;;;;;;5169585;28;20214;-75
2022/11/15 00:53:21;;;;;;;49.33;17.63;;;6.50;99.90;;;;;;5182715;28;20025;-75
2022/11/15 00:56:15;;;;;;;61.10;21.33;;;6.40;99.90;;;;;;5187470;28;20038;-75
2022/11/15 00:59:09;;;;;;;56.08;21.63;;;6.40;99.90;;;;;;5190655;28;20036;-75
2022/11/15 01:02:01;;;;;;;93.32;23.67;;;6.50;99.90;;;;;;5206498;28;20037;-76
2022/11/15 01:04:55;;;;;;;72.97;22.10;;;6.50;99.90;;;;;;5174520;28;20092;-75
2022/11/15 01:07:47;;;;;;;65.28;23.02;;;6.40;99.90;;;;;;5172039;28;20034;-75
2022/11/15 01:10:41;;;;;;;56.85;21.98;;;6.50;99.90;;;;;;5175010;28;20048;-75
2022/11/15 01:13:36;;;;;;;70.38;22.63;;;6.50;99.90;;;;;;5179473;28;20033;-74
2022/11/15 01:16:33;;;;;;;57.92;21.25;;;6.50;99.90;;;;;;5188345;28;20068;-74
2022/11/15 01:19:24;;;;;;;63.95;20.33;;;6.40;99.90;;;;;;5181432;28;20029;-74
2022/11/15 01:22:16;;;;;;;57.67;21.20;;;6.40;99.90;;;;;;5184779;28;20032;-75
2022/11/15 01:25:10;;;;;;;49.65;18.00;;;6.40;99.90;;;;;;5185104;28;20026;-74
2022/11/15 01:28:03;;;;;;;52.15;19.55;;;6.40;99.90;;;;;;5186201;28;20022;-76
2022/11/15 01:31:02;;;;;;;50.75;18.13;;;6.40;99.90;;;;;;5171804;28;20033;-76
2022/11/15 01:33:54;;;;;;;53.03;20.50;;;6.50;99.90;;;;;;5183469;28;20032;-76
2022/11/15 01:36:47;;;;;;;53.00;18.92;;;6.40;99.90;;;;;;5186222;28;20029;-76
2022/11/15 01:39:41;;;;;;;46.63;18.55;;;6.40;99.90;;;;;;5188575;28;20034;-75
2022/11/15 01:42:33;;;;;;;51.83;18.43;;;6.40;99.90;;;;;;5187748;28;20227;-75
2022/11/15 01:45:27;;;;;;;49.45;19.30;;;6.50;99.90;;;;;;5155130;28;20339;-75
2022/11/15 01:48:21;;;;;;;50.25;17.85;;;6.60;99.90;;;;;;5190134;28;20224;-75
2022/11/15 01:51:19;;;;;;;46.80;18.37;;;6.60;99.90;;;;;;5188903;28;20026;-75
2022/11/15 01:54:19;;;;;;;48.25;19.52;;;6.60;99.90;;;;;;5188219;28;20281;-75
2022/11/15 01:57:11;;;;;;;48.85;19.38;;;6.50;99.90;;;;;;5173995;28;20021;-75
2022/11/15 02:00:09;;;;;;;54.55;18.92;;;6.70;99.90;;;;;;5169437;28;20035;-75
2022/11/15 02:03:04;;;;;;;53.13;18.23;;;6.70;99.90;;;;;;5195937;28;20022;-74
2022/11/15 02:06:01;;;;;;;52.75;17.83;;;6.70;99.90;;;;;;5177704;28;20037;-74
2022/11/15 02:08:54;;;;;;;44.15;17.95;;;6.60;99.90;;;;;;5184954;28;20396;-76
2022/11/15 02:11:50;;;;;;;44.20;17.95;;;6.50;99.90;;;;;;5159253;28;20023;-74
2022/11/15 02:14:49;;;;;;;46.85;18.83;;;6.50;99.90;;;;;;5167735;28;21089;-74
2022/11/15 02:17:43;;;;;;;49.50;19.42;;;6.60;99.90;;;;;;5187364;28;20037;-75
2022/11/15 02:21:02;;;;;;;55.17;19.60;;;6.60;99.90;;;;;;5185023;28;20026;-74
2022/11/15 02:24:08;;;;;;;61.63;21.70;;;6.60;99.90;;;;;;5179570;28;20060;-76
2022/11/15 02:27:08;;;;;;;57.33;19.67;;;6.70;99.90;;;;;;5176335;28;20040;-76
2022/11/15 02:30:17;;;;;;;55.20;19.77;;;6.70;99.90;;;;;;5188912;28;20044;-76
2022/11/15 02:33:25;;;;;;;48.75;19.58;;;6.60;99.90;;;;;;5189885;28;20034;-75
2022/11/15 02:36:33;;;;;;;56.22;18.73;;;6.60;99.90;;;;;;5174001;28;20034;-75
2022/11/15 02:39:52;;;;;;;40.28;17.48;;;6.70;99.90;;;;;;5188107;28;20026;-74
2022/11/15 02:47:12;;;;;;;44.83;17.45;;;6.80;99.90;;;;;;5187454;28;20034;-75
2022/11/15 02:49:43;;;;;;;54.55;18.13;;;6.80;99.90;;;;;;5194174;28;20030;-74
2022/11/15 02:52:34;;;;;;;;;;;6.80;99.90;;;;;;5182228;28;20037;-75
2022/11/15 02:55:30;;;;;;;42.70;17.77;;;6.80;99.90;;;;;;5179169;28;19924;-76
2022/11/15 02:58:57;;;;;;;47.60;19.25;;;6.80;99.90;;;;;;5152558;28;20193;-74
2022/11/15 03:01:49;;;;;;;51.47;17.63;;;6.80;99.90;;;;;;5176991;28;20044;-75
2022/11/15 03:04:44;;;;;;;43.33;17.05;;;6.80;99.90;;;;;;5176480;28;20312;-76
2022/11/15 03:07:54;;;;;;;47.97;19.02;;;6.80;99.90;;;;;;5167256;28;20049;-76
2022/11/15 03:11:11;;;;;;;41.55;16.80;;;6.80;99.90;;;;;;5172513;28;20032;-75
2022/11/15 03:14:22;;;;;;;42.88;17.70;;;6.90;99.90;;;;;;5186006;28;20419;-76
2022/11/15 03:17:19;;;;;;;46.40;18.83;;;6.90;99.90;;;;;;5195920;28;20037;-76
2022/11/15 03:20:20;;;;;;;59.35;17.52;;;7.00;99.90;;;;;;5172551;28;20017;-76
2022/11/15 03:23:14;;;;;;;43.03;17.48;;;7.00;99.90;;;;;;5185077;28;20407;-76
2022/11/15 03:26:13;;;;;;;47.55;17.55;;;6.90;99.90;;;;;;5186138;28;20043;-75
2022/11/15 03:29:30;;;;;;;42.55;17.95;;;6.80;99.90;;;;;;5185563;28;20021;-76
2022/11/15 03:32:29;;;;;;;49.08;18.35;;;6.80;99.90;;;;;;5167295;28;20030;-76
2022/11/15 03:35:27;;;;;;;51.20;18.60;;;6.80;99.90;;;;;;5185609;28;20044;-75
2022/11/15 03:38:29;;;;;;;79.78;18.60;;;6.80;99.90;;;;;;5185575;28;20059;-74
2022/11/15 03:41:36;;;;;;;59.72;17.77;;;6.80;99.90;;;;;;5187133;28;20033;-76
2022/11/15 03:44:46;;;;;;;55.80;18.95;;;6.70;99.90;;;;;;5186344;28;20029;-76
2022/11/15 03:48:09;;;;;;;52.33;20.08;;;6.80;99.90;;;;;;5196819;28;20051;-77
2022/11/15 03:51:04;;;;;;;67.15;18.58;;;6.80;99.90;;;;;;5176688;28;20029;-76
2022/11/15 03:53:55;;;;;;;54.58;19.42;;;6.80;99.90;;;;;;5176513;28;20060;-75
2022/11/15 03:56:49;;;;;;;65.43;20.42;;;6.70;99.90;;;;;;5172963;28;20037;-76
2022/11/15 03:59:40;;;;;;;68.30;20.67;;;6.70;99.90;;;;;;5181667;28;20014;-76
2022/11/15 04:02:35;;;;;;;72.03;20.25;;;6.80;99.90;;;;;;5174446;28;20480;-76
2022/11/15 04:05:31;;;;;;;45.50;18.20;;;6.70;99.90;;;;;;5164617;28;20058;-76
2022/11/15 04:08:25;;;;;;;68.88;20.25;;;6.70;99.90;;;;;;5185576;28;20105;-75
2022/11/15 04:11:19;;;;;;;63.75;19.50;;;6.70;99.90;;;;;;5198069;28;20031;-77
2022/11/15 04:14:15;;;;;;;73.90;19.87;;;6.80;99.90;;;;;;5170272;28;20037;-77
2022/11/15 04:17:09;;;;;;;75.63;20.60;;;6.80;99.90;;;;;;5177719;28;20505;-76
2022/11/15 04:26:29;;;;;;;145.32;20.63;;;6.60;99.90;;;;;;5176627;28;20034;-76
2022/11/15 04:29:35;;;;;;;62.30;17.85;;;6.60;99.90;;;;;;5164670;28;20026;-77
2022/11/15 04:32:26;;;;;;;90.65;19.23;;;6.60;99.90;;;;;;5160171;28;20026;-74
2022/11/15 04:35:18;;;;;;;85.93;18.58;;;6.70;99.90;;;;;;5185173;28;20033;-75
2022/11/15 04:38:13;;;;;;;60.63;17.02;;;6.60;99.90;;;;;;5184584;28;20029;-76
2022/11/15 04:41:05;;;;;;;;;;;6.70;99.90;;;;;;5185095;28;20034;-75
2022/11/15 04:44:00;;;;;;;90.90;18.30;;;6.70;99.90;;;;;;5173081;28;20368;-76
2022/11/15 04:46:52;;;;;;;74.13;18.25;;;6.70;99.90;;;;;;5192375;28;20035;-75
2022/11/15 04:49:46;;;;;;;67.85;17.08;;;6.60;99.90;;;;;;5189267;28;20464;-75
2022/11/15 04:52:46;;;;;;;81.28;18.85;;;6.70;99.90;;;;;;5171536;28;20322;-77
2022/11/15 04:55:39;;;;;;;93.18;18.95;;;6.70;99.90;;;;;;5173005;28;20044;-75
2022/11/15 04:58:31;;;;;;;80.03;19.70;;;6.70;99.90;;;;;;5174673;28;20026;-75
2022/11/15 05:01:22;;;;;;;95.78;18.50;;;6.80;99.90;;;;;;5172763;28;20046;-77
2022/11/15 05:04:20;;;;;;;104.57;19.10;;;6.70;99.90;;;;;;5162605;28;20030;-76
2022/11/15 05:07:11;;;;;;;69.60;17.23;;;6.60;99.90;;;;;;5167643;28;20040;-76
2022/11/15 05:10:03;;;;;;;100.50;18.63;;;6.70;99.90;;;;;;5156832;28;20334;-75
2022/11/15 05:12:54;;;;;;;90.30;19.25;;;6.70;99.90;;;;;;5194746;28;20030;-76
2022/11/15 05:15:47;;;;;;;97.53;20.58;;;6.70;99.90;;;;;;5182913;28;20030;-76
2022/11/15 05:18:41;;;;;;;114.45;20.58;;;6.60;99.90;;;;;;5183309;28;20030;-77
2022/11/15 05:21:33;;;;;;;82.10;20.03;;;6.60;99.90;;;;;;5162674;28;20022;-76
2022/11/15 05:24:27;;;;;;;97.72;19.17;;;6.70;99.90;;;;;;5163432;28;20280;-76
2022/11/15 05:27:18;;;;;;;76.97;18.60;;;6.70;99.90;;;;;;5171447;28;20026;-76
2022/11/15 05:30:19;;;;;;;72.63;18.90;;;6.80;99.90;;;;;;5179846;28;20324;-76
2022/11/15 05:33:11;;;;;;;63.30;18.30;;;6.80;99.90;;;;;;5180643;28;20022;-76
2022/11/15 05:36:13;;;;;;;97.15;20.30;;;6.80;99.90;;;;;;5193156;28;20026;-76
2022/11/15 05:39:06;;;;;;;99.53;22.45;;;6.90;99.90;;;;;;5190934;28;20211;-76
2022/11/15 05:42:09;;;;;;;95.03;20.38;;;6.80;99.90;;;;;;5189758;28;20613;-76
2022/11/15 05:45:13;;;;;;;75.65;19.08;;;6.80;99.90;;;;;;5169471;28;20022;-77
2022/11/15 05:48:16;;;;;;;105.65;19.60;;;6.80;99.90;;;;;;5203247;28;20389;-78
2022/11/15 05:51:22;;;;;;;80.95;19.92;;;6.70;99.90;;;;;;5171299;28;20030;-76
2022/11/15 05:54:17;;;;;;;63.15;18.38;;;6.70;99.90;;;;;;5186371;28;20037;-76
2022/11/15 05:57:09;;;;;;;66.65;18.80;;;6.80;99.90;;;;;;5188893;28;20068;-75
2022/11/15 06:00:17;;;;;;;67.13;19.10;;;6.80;99.90;;;;;;5188580;28;20052;-77
2022/11/15 06:03:13;;;;;;;76.10;18.08;;;6.90;99.90;;;;;;5177805;28;20030;-77
2022/11/15 06:06:05;;;;;;;138.35;21.67;;;6.80;99.90;;;;;;5166057;28;20046;-77
2022/11/15 06:08:59;;;;;;;125.47;21.10;;;6.80;99.90;;;;;;5175323;28;20200;-77
2022/11/15 06:11:56;;;;;;;96.40;21.48;;;6.70;99.90;;;;;;5171355;28;20685;-77
2022/11/15 06:14:50;;;;;;;154.13;22.08;;;6.70;99.90;;;;;;5177395;28;20032;-77
2022/11/15 06:17:44;;;;;;;112.00;19.52;;;6.70;99.90;;;;;;5169133;28;20054;-76
2022/11/15 06:20:36;;;;;;;111.88;22.58;;;6.70;99.90;;;;;;5187378;28;20048;-77
2022/11/15 06:23:31;;;;;;;119.53;21.65;;;6.70;99.90;;;;;;5175980;28;20632;-76
2022/11/15 06:26:22;;;;;;;134.23;24.63;;;6.60;99.90;;;;;;5185798;28;20512;-77
2022/11/15 06:29:16;;;;;;;88.57;25.50;;;6.70;99.90;;;;;;5171579;28;20034;-76
2022/11/15 06:32:07;;;;;;;1405.82;663.97;;;6.80;99.90;;;;;;5152388;28;20060;-78
2022/11/15 06:34:59;;;;;;;334.23;152.15;;;6.90;99.90;;;;;;5187382;28;20036;-77
2022/11/15 06:37:52;;;;;;;1216.90;666.83;;;6.90;99.90;;;;;;5157725;28;20034;-77
2022/11/15 06:40:46;;;;;;;501.45;347.65;;;6.90;99.90;;;;;;5174389;28;20034;-77
2022/11/15 06:43:40;;;;;;;305.83;198.82;;;6.90;99.90;;;;;;5196254;28;20028;-77
2022/11/15 06:46:38;;;;;;;594.38;530.63;;;6.90;99.90;;;;;;5190020;28;20036;-77
2022/11/15 06:49:32;;;;;;;459.00;325.42;;;7.00;99.90;;;;;;5141791;28;20030;-77
2022/11/15 06:52:32;;;;;;;318.17;231.55;;;7.00;99.90;;;;;;5155814;28;20022;-77
2022/11/15 06:55:23;;;;;;;128.88;36.33;;;7.00;99.90;;;;;;5184174;28;20038;-77
2022/11/15 06:58:15;;;;;;;203.27;54.03;;;6.90;99.90;;;;;;5204722;28;20325;-77
2022/11/15 07:01:11;;;;;;;345.50;216.35;;;6.90;99.90;;;;;;5186120;28;20042;-76
2022/11/15 07:04:08;;;;;;;204.45;124.03;;;7.00;99.90;;;;;;5179158;28;20034;-77
2022/11/15 07:07:00;;;;;;;81.55;24.80;;;7.00;99.90;;;;;;5143287;28;20496;-77
2022/11/15 07:09:57;;;;;;;68.68;18.80;;;6.90;99.90;;;;;;5177535;28;20034;-77
2022/11/15 07:12:49;;;;;;;76.32;18.75;;;6.80;99.90;;;;;;5176646;28;20057;-76
2022/11/15 07:15:40;;;;;;;77.47;20.10;;;6.80;99.90;;;;;;5177832;28;20342;-77
2022/11/15 07:18:36;;;;;;;63.78;18.05;;;6.70;99.90;;;;;;5164428;28;20115;-77
2022/11/15 07:21:31;;;;;;;119.40;21.15;;;6.80;99.90;;;;;;5185008;28;20025;-77
2022/11/15 07:24:25;;;;;;;94.43;20.80;;;6.70;99.90;;;;;;5163798;28;20032;-77
2022/11/15 07:27:19;;;;;;;72.10;18.23;;;6.80;99.90;;;;;;5162616;28;20029;-77
2022/11/15 07:30:11;;;;;;;87.65;19.02;;;6.80;99.90;;;;;;5160665;28;20224;-76
2022/11/15 07:33:07;;;;;;;56.33;18.33;;;6.80;99.90;;;;;;5174281;28;20038;-77
2022/11/15 07:36:07;;;;;;;58.85;17.60;;;6.80;99.90;;;;;;5173038;28;20227;-76
2022/11/15 07:39:01;;;;;;;80.82;19.40;;;6.90;99.90;;;;;;5149820;28;20026;-78
2022/11/15 07:42:52;;;;;;;89.60;21.15;;;6.90;99.90;;;;;;5181303;28;20044;-77
2022/11/15 07:45:06;;;;;;;72.10;17.95;;;6.90;99.90;;;;;;5185063;28;21347;-76
2022/11/15 07:48:00;;;;;;;81.35;19.73;;;6.90;99.90;;;;;;5177095;28;20049;-77
2022/11/15 07:50:51;;;;;;;77.10;18.65;;;6.90;99.90;;;;;;5165461;28;20026;-77
2022/11/15 07:53:43;;;;;;;87.25;18.80;;;6.90;99.90;;;;;;5153346;28;20030;-76
2022/11/15 07:56:35;;;;;;;64.28;20.75;;;6.90;99.90;;;;;;5181042;28;20432;-78
2022/11/15 07:59:29;;;;;;;333.30;170.07;;;7.00;99.90;;;;;;5171048;28;20361;-77
2022/11/15 08:02:25;;;;;;;571.53;288.30;;;7.00;99.90;;;;;;5188140;28;20038;-77
2022/11/15 08:05:16;;;;;;;524.63;371.65;;;7.00;99.90;;;;;;5166814;28;20136;-77
2022/11/15 08:08:10;;;;;;;553.95;356.25;;;7.20;99.90;;;;;;5176615;28;20025;-77
2022/11/15 08:11:02;;;;;;;468.92;315.90;;;7.20;99.90;;;;;;5181904;28;20511;-77
2022/11/15 08:13:54;;;;;;;134.48;72.53;;;7.20;99.90;;;;;;5184841;28;20118;-75
2022/11/15 08:16:45;;;;;;;86.75;34.75;;;7.20;99.90;;;;;;5180355;28;20484;-77
2022/11/15 08:19:39;;;;;;;123.63;65.88;;;7.20;99.90;;;;;;5177324;28;20036;-77
2022/11/15 08:22:36;;;;;;;258.30;206.15;;;7.20;99.90;;;;;;5162429;28;20462;-78
2022/11/15 08:25:33;;;;;;;546.67;458.25;;;7.20;99.90;;;;;;5173144;28;20351;-76
2022/11/15 08:28:24;;;;;;;116.15;80.40;;;7.20;99.90;;;;;;5178239;28;20021;-76
2022/11/15 08:31:18;;;;;;;105.55;59.83;;;7.30;99.90;;;;;;5174325;28;20018;-75
2022/11/15 08:34:14;;;;;;;142.80;79.20;;;7.40;99.90;;;;;;5175067;28;20041;-76
2022/11/15 08:37:09;;;;;;;65.38;30.48;;;7.30;99.90;;;;;;5161307;28;20030;-76
2022/11/15 08:40:01;;;;;;;225.20;122.53;;;7.30;99.90;;;;;;5175315;28;20106;-76
2022/11/15 08:42:52;;;;;;;334.25;216.20;;;7.40;99.90;;;;;;5165220;28;20040;-76
2022/11/15 08:45:44;;;;;;;81.40;38.53;;;7.40;99.90;;;;;;5180823;28;20037;-75
2022/11/15 08:48:36;;;;;;;219.88;131.80;;;7.50;99.90;;;;;;5176512;28;20018;-76
2022/11/15 08:51:30;;;;;;;188.75;107.75;;;7.40;99.90;;;;;;5182431;28;20038;-77
2022/11/15 08:54:21;;;;;;;91.68;45.42;;;7.40;99.90;;;;;;5175606;28;20038;-78
2022/11/15 08:57:15;;;;;;;166.63;99.07;;;7.30;99.90;;;;;;5174963;28;20041;-75
2022/11/15 09:00:07;;;;;;;249.63;163.63;;;7.30;99.90;;;;;;5173448;28;20036;-77
2022/11/15 09:02:59;;;;;;;363.88;235.98;;;7.30;99.90;;;;;;5162581;28;20030;-77
2022/11/15 09:06:00;;;;;;;165.80;81.47;;;7.30;99.90;;;;;;5169070;28;20050;-77
2022/11/15 09:08:54;;;;;;;77.90;32.28;;;7.20;99.90;;;;;;5182425;28;20038;-76
2022/11/15 09:11:46;;;;;;;93.47;38.67;;;7.20;99.90;;;;;;5181732;28;20040;-76
2022/11/15 09:14:38;;;;;;;105.55;39.40;;;7.20;99.90;;;;;;5166484;28;20024;-77
2022/11/15 09:17:31;;;;;;;323.95;161.35;;;7.30;99.90;;;;;;5167636;28;20392;-78
2022/11/15 09:20:23;;;;;;;272.83;107.20;;;7.20;99.90;;;;;;5181436;28;20029;-77
2022/11/15 09:23:17;;;;;;;263.63;126.78;;;7.20;99.90;;;;;;5176238;28;20026;-77
2022/11/15 09:26:09;;;;;;;131.87;38.60;;;7.20;99.90;;;;;;5164265;28;20331;-76
2022/11/15 09:29:01;;;;;;;418.65;224.52;;;7.20;99.90;;;;;;5176543;28;20025;-76
2022/11/15 09:31:55;;;;;;;410.30;234.18;;;7.30;99.90;;;;;;5177738;28;20036;-78
2022/11/15 09:34:53;;;;;;;232.15;118.00;;;7.30;99.90;;;;;;5176876;28;20022;-79
2022/11/15 09:37:44;;;;;;;118.50;45.58;;;7.30;99.90;;;;;;5177675;28;20022;-77
2022/11/15 09:40:37;;;;;;;87.75;31.35;;;7.10;99.90;;;;;;5177064;28;20022;-77
2022/11/15 09:43:42;;;;;;;71.80;23.65;;;7.20;99.90;;;;;;5170655;28;20338;-77
2022/11/15 09:46:57;;;;;;;102.97;50.07;;;7.30;99.90;;;;;;5179732;28;20025;-78
2022/11/15 09:49:58;;;;;;;76.68;22.35;;;7.30;99.90;;;;;;5181028;28;20470;-77
2022/11/15 09:52:55;;;;;;;84.50;25.98;;;7.40;99.90;;;;;;5172739;28;20046;-78
2022/11/15 09:56:01;;;;;;;94.82;40.90;;;7.50;99.90;;;;;;5162836;28;20026;-76
2022/11/15 09:59:13;;;;;;;138.38;68.13;;;7.40;99.90;;;;;;5181114;28;20068;-77
2022/11/15 10:02:08;;;;;;;106.93;50.25;;;7.40;99.90;;;;;;5165971;28;20222;-77
2022/11/15 10:05:03;;;;;;;87.18;22.60;;;7.50;99.90;;;;;;5171914;28;20058;-79
2022/11/15 10:08:23;;;;;;;76.72;21.95;;;7.50;99.90;;;;;;5160017;28;20038;-76
2022/11/15 10:11:35;;;;;;;77.50;20.38;;;7.60;99.90;;;;;;5175288;28;20029;-78
2022/11/15 10:14:30;;;;;;;88.15;22.65;;;7.60;99.90;;;;;;5190925;28;20029;-78
2022/11/15 10:17:53;;;;;;;83.82;22.67;;;7.70;99.90;;;;;;5180342;28;20045;-77
2022/11/15 10:20:49;;;;;;;148.73;63.95;;;7.70;99.90;;;;;;5176787;28;20040;-76
2022/11/15 10:23:40;;;;;;;1137.30;677.08;;;7.80;99.90;;;;;;5191831;28;20032;-78
2022/11/15 10:26:32;;;;;;;162.95;112.15;;;7.80;99.90;;;;;;5178075;28;20036;-76
2022/11/15 10:29:25;;;;;;;163.40;103.07;;;7.80;99.90;;;;;;5175983;28;20022;-76
2022/11/15 10:32:20;;;;;;;100.78;51.55;;;7.90;99.90;;;;;;5193486;28;20524;-76
2022/11/15 10:35:28;;;;;;;56.10;23.80;;;8.00;99.90;;;;;;5180365;28;20111;-77
2022/11/15 10:38:22;;;;;;;63.30;22.83;;;8.00;99.90;;;;;;5194321;28;20037;-77
2022/11/15 10:41:14;;;;;;;62.63;20.38;;;8.00;99.90;;;;;;5172356;28;20042;-78
2022/11/15 10:44:18;;;;;;;49.08;18.88;;;8.10;99.90;;;;;;5185932;28;20040;-78
2022/11/15 10:47:32;;;;;;;63.45;18.75;;;8.10;99.90;;;;;;5183323;28;20032;-78
2022/11/15 10:50:28;;;;;;;57.08;18.48;;;8.20;99.90;;;;;;5184249;28;20173;-78
2022/11/15 10:53:30;;;;;;;65.03;17.83;;;8.20;99.90;;;;;;5184425;28;20299;-78
2022/11/15 10:56:28;;;;;;;79.30;18.95;;;8.00;99.90;;;;;;5166580;28;20026;-75
2022/11/15 10:59:33;;;;;;;49.42;16.27;;;8.00;99.90;;;;;;5169887;28;20028;-78
2022/11/15 11:02:27;;;;;;;60.15;18.60;;;8.10;99.90;;;;;;5169387;28;20038;-78
2022/11/15 11:05:33;;;;;;;50.28;17.83;;;8.10;99.90;;;;;;5177242;28;20056;-77
2022/11/15 11:08:27;;;;;;;;;;;8.00;99.90;;;;;;5170726;28;20025;-78
2022/11/15 11:11:18;;;;;;;50.05;15.75;;;8.10;99.90;;;;;;5165295;28;20325;-78
2022/11/15 11:14:36;;;;;;;62.88;18.00;;;8.00;99.90;;;;;;5161974;28;20014;-76
2022/11/15 11:18:09;;;;;;;54.55;18.38;;;8.10;99.90;;;;;;5181403;28;20014;-77
2022/11/15 11:21:09;;;;;;;63.97;20.23;;;8.10;99.90;;;;;;5163280;28;20018;-78
2022/11/15 11:24:13;;;;;;;55.22;19.50;;;8.30;99.90;;;;;;5183201;28;20021;-79
2022/11/15 11:27:23;;;;;;;53.13;18.50;;;8.40;99.90;;;;;;5172217;28;20242;-78
2022/11/15 11:30:23;;;;;;;52.90;18.90;;;8.50;99.90;;;;;;5186818;28;20030;-78
2022/11/15 11:33:24;;;;;;;58.42;19.63;;;8.50;99.90;;;;;;5184077;28;20384;-78
2022/11/15 11:36:32;;;;;;;47.22;17.73;;;8.50;99.90;;;;;;5176483;28;20042;-77
2022/11/15 11:39:50;;;;;;;50.30;18.02;;;8.60;99.90;;;;;;5161572;28;20391;-76
2022/11/15 11:43:02;;;;;;;55.58;20.20;;;8.60;99.90;;;;;;5178817;28;20026;-76
2022/11/15 11:46:03;;;;;;;49.47;17.83;;;8.50;99.90;;;;;;5173575;28;20028;-76
2022/11/15 11:49:22;;;;;;;49.00;17.88;;;8.60;99.90;;;;;;5178963;28;20026;-78
2022/11/15 11:52:33;;;;;;;49.75;18.85;;;8.70;99.90;;;;;;5167338;28;20030;-77
2022/11/15 11:55:45;;;;;;;43.90;17.00;;;8.70;99.90;;;;;;5175576;28;20029;-78
2022/11/15 11:58:45;;;;;;;48.72;17.67;;;8.70;99.90;;;;;;5179480;28;20038;-78
2022/11/15 12:01:43;;;;;;;52.13;19.90;;;8.90;99.90;;;;;;5186631;28;20037;-77
2022/11/15 12:04:45;;;;;;;46.55;19.25;;;9.10;99.90;;;;;;5170378;28;20049;-78
2022/11/15 12:07:41;;;;;;;46.20;17.45;;;9.10;99.90;;;;;;5178992;28;20060;-78
2022/11/15 12:10:35;;;;;;;41.72;17.90;;;9.20;99.90;;;;;;5167521;28;20052;-78
2022/11/15 12:13:33;;;;;;;50.78;18.05;;;9.20;99.90;;;;;;5168871;28;20291;-77
2022/11/15 12:16:30;;;;;;;39.20;16.15;;;9.10;99.90;;;;;;5182778;28;20033;-78
2022/11/15 12:19:22;;;;;;;43.42;17.20;;;9.00;99.90;;;;;;5183597;28;20107;-78
2022/11/15 12:22:42;;;;;;;43.38;17.65;;;9.10;99.90;;;;;;5186244;28;20025;-77
2022/11/15 12:26:08;;;;;;;50.17;17.33;;;9.20;99.90;;;;;;5185633;28;20231;-77
2022/11/15 12:29:10;;;;;;;41.30;16.58;;;9.30;99.90;;;;;;5171532;28;20040;-78
2022/11/15 12:32:06;;;;;;;38.15;15.98;;;9.20;99.90;;;;;;5184854;28;20037;-78
2022/11/15 12:35:01;;;;;;;34.53;15.45;;;9.10;99.90;;;;;;5182654;28;20029;-77
2022/11/15 12:37:56;;;;;;;40.60;18.38;;;8.90;99.90;;;;;;5175222;28;20034;-78
2022/11/15 12:41:17;;;;;;;37.42;15.82;;;9.00;99.90;;;;;;5170760;28;20045;-79
2022/11/15 12:44:31;;;;;;;37.33;15.98;;;9.10;99.90;;;;;;5162044;28;20025;-77
2022/11/15 12:47:27;;;;;;;37.78;15.02;;;9.10;99.90;;;;;;5179298;28;20038;-79
2022/11/15 12:50:50;;;;;;;40.17;17.17;;;9.20;99.90;;;;;;5166141;28;20036;-77
2022/11/15 12:53:45;;;;;;;41.05;15.60;;;9.00;99.90;;;;;;5189207;28;20039;-77
2022/11/15 12:56:44;;;;;;;42.55;16.40;;;9.00;99.90;;;;;;5188249;28;20049;-79
2022/11/15 12:59:54;;;;;;;34.42;15.25;;;8.90;99.90;;;;;;5203907;28;20037;-77
2022/11/15 13:02:47;;;;;;;33.67;15.70;;;8.90;99.90;;;;;;5172086;28;20255;-76
2022/11/15 13:05:44;;;;;;;36.03;14.85;;;8.90;99.90;;;;;;5153490;28;20046;-78
2022/11/15 13:08:50;;;;;;;45.58;18.27;;;8.90;99.90;;;;;;5177793;28;20032;-77
2022/11/15 13:11:44;;;;;;;47.30;19.92;;;8.90;99.90;;;;;;5168575;28;20029;-77
2022/11/15 13:14:54;;;;;;;38.95;19.92;;;8.90;99.90;;;;;;5182966;28;20014;-78
2022/11/15 13:17:46;;;;;;;52.60;20.92;;;9.00;99.90;;;;;;5169706;28;20030;-78
2022/11/15 13:20:40;;;;;;;46.38;19.55;;;9.10;99.90;;;;;;5177804;28;20031;-78
2022/11/15 13:23:31;;;;;;;45.38;20.33;;;9.20;99.90;;;;;;5181593;28;20030;-76
2022/11/15 13:26:31;;;;;;;41.83;18.48;;;9.20;99.90;;;;;;5179034;28;20020;-79
2022/11/15 13:29:23;;;;;;;43.13;16.15;;;9.10;99.90;;;;;;5173807;28;20013;-77
2022/11/15 13:32:19;;;;;;;36.10;15.50;;;9.00;99.90;;;;;;5182120;28;20869;-76
2022/11/15 13:35:20;;;;;;;34.78;14.27;;;9.00;99.90;;;;;;5201885;28;20349;-78
2022/11/15 13:38:24;;;;;;;34.88;14.82;;;8.90;99.90;;;;;;5185217;28;20028;-76
2022/11/15 13:41:21;;;;;;;33.20;15.57;;;9.00;99.90;;;;;;5194573;28;20026;-76
2022/11/15 13:44:24;;;;;;;38.20;15.45;;;9.00;99.90;;;;;;5170628;28;20036;-76
2022/11/15 13:47:19;;;;;;;31.63;15.65;;;8.90;99.90;;;;;;5193298;28;20040;-77
2022/11/15 13:50:11;;;;;;;;;;;9.00;99.90;;;;;;5182214;28;20325;-77
2022/11/15 13:53:04;;;;;;;38.25;17.98;;;8.90;99.90;;;;;;5198762;28;19917;-77
2022/11/15 13:55:57;;;;;;;42.35;17.65;;;9.10;99.90;;;;;;5189975;28;20040;-76
2022/11/15 13:58:49;;;;;;;36.97;16.75;;;9.00;99.90;;;;;;5202544;28;20059;-77
2022/11/15 14:01:43;;;;;;;39.35;18.10;;;8.80;99.90;;;;;;5197430;28;20375;-75
2022/11/15 14:04:34;;;;;;;44.70;18.42;;;8.90;99.90;;;;;;5158204;28;20050;-78
2022/11/15 14:07:28;;;;;;;39.72;19.15;;;8.90;99.90;;;;;;5182404;28;20030;-78
2022/11/15 14:10:34;;;;;;;44.33;19.55;;;8.90;99.90;;;;;;5170372;28;20328;-79
2022/11/15 14:13:34;;;;;;;33.75;15.70;;;8.90;99.90;;;;;;5189682;28;20034;-78
2022/11/15 14:16:35;;;;;;;43.00;18.33;;;8.80;99.90;;;;;;5178133;28;20030;-78
2022/11/15 14:19:31;;;;;;;39.55;16.65;;;8.60;99.90;;;;;;5167261;28;20073;-77
2022/11/15 14:22:29;;;;;;;48.78;19.48;;;8.60;99.90;;;;;;5184419;28;20258;-77
2022/11/15 14:25:23;;;;;;;40.45;17.70;;;8.60;99.90;;;;;;5190933;28;20021;-77
2022/11/15 14:28:22;;;;;;;42.40;19.38;;;8.70;99.90;;;;;;5175349;28;20029;-76
2022/11/15 14:31:14;;;;;;;47.33;19.75;;;8.60;99.90;;;;;;5189108;28;20243;-78
2022/11/15 14:34:08;;;;;;;45.08;19.73;;;8.60;99.90;;;;;;5175320;28;21047;-76
2022/11/15 14:37:01;;;;;;;45.63;19.75;;;8.60;99.90;;;;;;5177966;28;20041;-76
2022/11/15 14:39:55;;;;;;;51.75;19.80;;;8.60;99.90;;;;;;5167064;28;20028;-76
2022/11/15 14:42:54;;;;;;;50.38;23.60;;;8.60;99.90;;;;;;5188574;28;20029;-76
2022/11/15 14:45:48;;;;;;;48.38;22.48;;;8.70;99.90;;;;;;5181052;28;20032;-76
2022/11/15 14:48:42;;;;;;;46.83;21.13;;;8.70;99.90;;;;;;5187193;28;20326;-76
2022/11/15 14:51:34;;;;;;;43.28;20.48;;;8.70;99.90;;;;;;5180976;28;20049;-76
2022/11/15 14:54:25;;;;;;;47.72;22.33;;;8.70;99.90;;;;;;5168222;28;20022;-76
2022/11/15 14:57:19;;;;;;;51.50;23.88;;;8.80;99.90;;;;;;5168152;28;20034;-76
2022/11/15 15:00:11;;;;;;;58.58;26.58;;;8.70;99.90;;;;;;5154490;28;20037;-76
2022/11/15 15:03:04;;;;;;;52.85;24.00;;;8.70;99.90;;;;;;5206607;28;20192;-77
2022/11/15 15:05:56;;;;;;;54.80;26.05;;;8.60;99.90;;;;;;5164864;28;20270;-76
2022/11/15 15:08:50;;;;;;;49.20;24.05;;;8.70;99.90;;;;;;5183632;28;20033;-78
2022/11/15 15:11:45;;;;;;;50.88;23.20;;;8.70;99.90;;;;;;5179086;28;20028;-78
2022/11/15 15:14:37;;;;;;;54.03;26.60;;;8.80;99.90;;;;;;5173029;28;20401;-78
2022/11/15 15:17:33;;;;;;;58.80;26.65;;;8.80;99.90;;;;;;5191917;28;20030;-78
2022/11/15 15:20:24;;;;;;;55.50;23.98;;;8.80;99.90;;;;;;5188625;28;20530;-76